Time;durP1;ratioP1;P1;durP2;ratioP2;P2;SDS_P1;SDS_P2;PMS_P1;PMS_P2;Temp;Humidity;BMP_temperature;BMP_pressure;BME280_temperature;BME280_humidity;BME280_pressure;Samples;Min_cycle;Max_cycle;Signal;HPM_P1;HPM_P2
2024/01/04 00:00:51;;;;;;;;;;;8.50;99.90;;;;;;5007457;28;19916;-77
2024/01/04 00:03:37;;;;;;;;;;;8.50;99.90;;;;;;5009485;28;20647;-77
2024/01/04 00:06:23;;;;;;;;;;;8.50;99.90;;;;;;5023327;28;20237;-76
2024/01/04 00:09:10;;;;;;;;;;;8.50;99.90;;;;;;5011132;28;19957;-76
2024/01/04 00:11:56;;;;;;;;;;;8.50;99.90;;;;;;4997934;28;19924;-76
2024/01/04 00:14:41;;;;;;;;;;;8.40;99.90;;;;;;5008973;28;19968;-76
2024/01/04 00:17:27;;;;;;;;;;;8.40;99.90;;;;;;5022389;28;20354;-76
2024/01/04 00:20:13;;;;;;;;;;;8.40;99.90;;;;;;5022217;28;19924;-76
2024/01/04 00:22:59;;;;;;;;;;;8.40;99.90;;;;;;5005498;28;19917;-76
2024/01/04 00:25:45;;;;;;;;;;;8.30;99.90;;;;;;5011105;28;19921;-76
2024/01/04 00:28:31;;;;;;;;;;;8.30;99.90;;;;;;5016065;28;19921;-76
2024/01/04 00:31:17;;;;;;;;;;;8.20;99.90;;;;;;5022549;28;19913;-76
2024/01/04 00:34:03;;;;;;;;;;;8.20;99.90;;;;;;5037388;28;19917;-76
2024/01/04 00:36:49;;;;;;;;;;;8.20;99.90;;;;;;5012084;28;19917;-76
2024/01/04 00:39:34;;;;;;;;;;;8.20;99.90;;;;;;5022742;28;19952;-76
2024/01/04 00:42:20;;;;;;;;;;;8.20;99.90;;;;;;5022214;28;19931;-76
2024/01/04 00:45:06;;;;;;;;;;;8.10;99.90;;;;;;5020392;28;20245;-76
2024/01/04 00:47:52;;;;;;;;;;;8.10;99.90;;;;;;5003546;28;19928;-76
2024/01/04 00:50:38;;;;;;;;;;;8.10;99.90;;;;;;5012278;28;20593;-76
2024/01/04 00:53:24;;;;;;;;;;;8.10;99.90;;;;;;5006439;28;19917;-76
2024/01/04 00:56:10;;;;;;;;;;;8.00;99.90;;;;;;5019385;28;19921;-76
2024/01/04 00:58:56;;;;;;;;;;;8.00;99.90;;;;;;5015374;28;19921;-76
2024/01/04 01:01:41;;;;;;;;;;;7.90;99.90;;;;;;5019135;28;19921;-76
2024/01/04 01:04:27;;;;;;;;;;;7.90;99.90;;;;;;5016527;28;19913;-76
2024/01/04 01:07:13;;;;;;;;;;;7.90;99.90;;;;;;5017285;28;19920;-75
2024/01/04 01:09:59;;;;;;;;;;;8.00;99.90;;;;;;5023130;28;20245;-76
2024/01/04 01:12:45;;;;;;;;;;;7.90;99.90;;;;;;5017226;28;19917;-76
2024/01/04 01:15:31;;;;;;;;;;;7.90;99.90;;;;;;5013473;28;19927;-76
2024/01/04 01:18:17;;;;;;;;;;;7.90;99.90;;;;;;5009651;28;19996;-76
2024/01/04 01:21:03;;;;;;;;;;;8.00;99.90;;;;;;5027581;28;19913;-76
2024/01/04 01:23:49;;;;;;;;;;;7.90;99.90;;;;;;5029742;28;19918;-76
2024/01/04 01:26:35;;;;;;;;;;;8.00;99.90;;;;;;5008693;28;19917;-76
2024/01/04 01:29:21;;;;;;;;;;;8.00;99.90;;;;;;5022499;28;20257;-74
2024/01/04 01:32:06;;;;;;;;;;;8.10;99.90;;;;;;5015974;28;20384;-76
2024/01/04 01:34:54;;;;;;;;;;;8.00;99.90;;;;;;5008638;28;19925;-76
2024/01/04 01:37:40;;;;;;;;;;;8.00;99.90;;;;;;5013071;28;19961;-76
2024/01/04 01:40:26;;;;;;;;;;;8.10;99.90;;;;;;5023364;28;19967;-76
2024/01/04 01:43:12;;;;;;;;;;;8.00;99.90;;;;;;5004464;28;19956;-76
2024/01/04 01:45:58;;;;;;;;;;;8.10;99.90;;;;;;5004207;28;19987;-75
2024/01/04 01:48:43;;;;;;;;;;;8.10;99.90;;;;;;5008951;28;19932;-76
2024/01/04 01:51:29;;;;;;;;;;;8.10;99.90;;;;;;5017871;28;19913;-76
2024/01/04 01:54:15;;;;;;;;;;;8.10;99.90;;;;;;5000064;28;19921;-76
2024/01/04 01:57:01;;;;;;;;;;;8.10;99.90;;;;;;5037807;28;19924;-76
2024/01/04 01:59:47;;;;;;;;;;;8.20;99.90;;;;;;4998243;28;19979;-76
2024/01/04 02:02:33;;;;;;;;;;;8.20;99.90;;;;;;5040058;28;19923;-76
2024/01/04 02:05:19;;;;;;;;;;;8.20;99.90;;;;;;5012670;28;20357;-76
2024/01/04 02:08:05;;;;;;;;;;;8.20;99.90;;;;;;5012726;28;19917;-76
2024/01/04 02:10:51;;;;;;;;;;;8.20;99.90;;;;;;5006280;28;20056;-76
2024/01/04 02:13:37;;;;;;;;;;;8.20;99.90;;;;;;5001014;28;19918;-76
2024/01/04 02:16:23;;;;;;;;;;;8.20;99.90;;;;;;4998235;28;19917;-77
2024/01/04 02:19:09;;;;;;;;;;;8.20;99.90;;;;;;5014751;28;19989;-76
2024/01/04 02:21:55;;;;;;;;;;;8.20;99.90;;;;;;5014875;28;20296;-76
2024/01/04 02:24:41;;;;;;;;;;;8.20;99.90;;;;;;5015564;28;19927;-76
2024/01/04 02:27:26;;;;;;;;;;;8.20;99.90;;;;;;5038443;28;19920;-76
2024/01/04 02:30:12;;;;;;;;;;;8.20;99.90;;;;;;5002503;28;19917;-76
2024/01/04 02:33:00;;;;;;;;;;;8.20;99.90;;;;;;5018267;28;19960;-76
2024/01/04 02:35:48;;;;;;;;;;;8.20;99.90;;;;;;5016772;28;19943;-76
2024/01/04 02:38:34;;;;;;;;;;;8.20;99.90;;;;;;5003495;28;19926;-77
2024/01/04 02:41:20;;;;;;;;;;;8.10;99.90;;;;;;5013528;28;19921;-76
2024/01/04 02:44:05;;;;;;;;;;;8.10;99.90;;;;;;5024461;28;19913;-75
2024/01/04 02:46:51;;;;;;;;;;;8.10;99.90;;;;;;5018604;28;19913;-76
2024/01/04 02:49:38;;;;;;;;;;;8.10;99.90;;;;;;5006234;28;19921;-77
2024/01/04 02:52:24;;;;;;;;;;;8.10;99.90;;;;;;5006774;28;19917;-77
2024/01/04 02:55:09;;;;;;;;;;;8.10;99.90;;;;;;5024060;28;19913;-77
2024/01/04 02:57:55;;;;;;;;;;;8.10;99.90;;;;;;5011657;28;20363;-76
2024/01/04 03:00:41;;;;;;;;;;;8.10;99.90;;;;;;5015900;28;19963;-76
2024/01/04 03:03:27;;;;;;;;;;;8.00;99.90;;;;;;5002701;28;20450;-76
2024/01/04 03:06:13;;;;;;;;;;;8.10;99.90;;;;;;5024152;28;19924;-76
2024/01/04 03:08:59;;;;;;;;;;;8.10;99.90;;;;;;5023849;28;19921;-76
2024/01/04 03:11:45;;;;;;;;;;;8.00;99.90;;;;;;5011151;28;19992;-77
2024/01/04 03:14:31;;;;;;;;;;;8.00;99.90;;;;;;5017663;28;19913;-76
2024/01/04 03:17:17;;;;;;;;;;;8.00;99.90;;;;;;5010870;28;19928;-76
2024/01/04 03:20:04;;;;;;;;;;;8.10;99.90;;;;;;5009541;28;20678;-76
2024/01/04 03:22:50;;;;;;;;;;;8.00;99.90;;;;;;5011352;28;20104;-77
2024/01/04 03:25:35;;;;;;;;;;;8.00;99.90;;;;;;5026631;28;19940;-76
2024/01/04 03:28:21;;;;;;;;;;;7.90;99.90;;;;;;5014694;28;19913;-76
2024/01/04 03:31:07;;;;;;;;;;;7.90;99.90;;;;;;5023119;28;20008;-77
2024/01/04 03:33:53;;;;;;;;;;;7.90;99.90;;;;;;5026572;28;19917;-76
2024/01/04 03:36:39;;;;;;;;;;;8.00;99.90;;;;;;5025221;28;19978;-77
2024/01/04 03:39:25;;;;;;;;;;;7.90;99.90;;;;;;5016780;28;20000;-76
2024/01/04 03:42:11;;;;;;;;;;;7.90;99.90;;;;;;5004835;28;20334;-76
2024/01/04 03:44:57;;;;;;;;;;;7.90;99.90;;;;;;5003884;28;19924;-76
2024/01/04 03:47:43;;;;;;;;;;;7.90;99.90;;;;;;5025479;28;19917;-77
2024/01/04 03:50:29;;;;;;;;;;;7.90;99.90;;;;;;5023466;28;20007;-77
2024/01/04 03:53:15;;;;;;;;;;;7.90;99.90;;;;;;5023310;28;19921;-76
2024/01/04 03:56:01;;;;;;;;;;;7.90;99.90;;;;;;5010394;28;20020;-77
2024/01/04 03:58:47;;;;;;;;;;;7.90;99.90;;;;;;5021694;28;19995;-76
2024/01/04 04:01:33;;;;;;;;;;;7.90;99.90;;;;;;5008204;28;19913;-76
2024/01/04 04:04:18;;;;;;;;;;;7.90;99.90;;;;;;5007933;28;20015;-77
2024/01/04 04:07:04;;;;;;;;;;;7.90;99.90;;;;;;5002659;28;19972;-77
2024/01/04 04:09:50;;;;;;;;;;;7.90;99.90;;;;;;5009165;28;20260;-76
2024/01/04 04:12:36;;;;;;;;;;;7.80;99.90;;;;;;5033434;28;19917;-77
2024/01/04 04:15:22;;;;;;;;;;;7.80;99.90;;;;;;5016801;28;19917;-76
2024/01/04 04:18:08;;;;;;;;;;;7.80;99.90;;;;;;5022586;28;20008;-76
2024/01/04 04:20:54;;;;;;;;;;;7.70;99.90;;;;;;5024119;28;19970;-76
2024/01/04 04:23:39;;;;;;;;;;;7.70;99.90;;;;;;5023833;28;20322;-76
2024/01/04 04:26:25;;;;;;;;;;;7.70;99.90;;;;;;5021476;28;19921;-77
2024/01/04 04:29:11;;;;;;;;;;;7.70;99.90;;;;;;5022490;28;19925;-76
2024/01/04 04:31:57;;;;;;;;;;;7.70;99.90;;;;;;5009532;28;19923;-77
2024/01/04 04:34:43;;;;;;;;;;;7.80;99.90;;;;;;4994361;28;19913;-77
2024/01/04 04:37:29;;;;;;;;;;;7.70;99.90;;;;;;5022475;28;19925;-76
2024/01/04 04:40:14;;;;;;;;;;;7.70;99.90;;;;;;4999740;28;19944;-77
2024/01/04 04:43:00;;;;;;;;;;;7.70;99.90;;;;;;5016883;28;20241;-76
2024/01/04 04:45:46;;;;;;;;;;;7.70;99.90;;;;;;4992582;28;19913;-76
2024/01/04 04:48:32;;;;;;;;;;;7.70;99.90;;;;;;4989916;28;19921;-77
2024/01/04 04:51:18;;;;;;;;;;;7.70;99.90;;;;;;5019590;28;19917;-76
2024/01/04 04:54:04;;;;;;;;;;;7.70;99.90;;;;;;5012026;28;19920;-76
2024/01/04 04:56:50;;;;;;;;;;;7.70;99.90;;;;;;5036279;28;20277;-77
2024/01/04 04:59:35;;;;;;;;;;;7.50;99.90;;;;;;5020895;28;19924;-77
2024/01/04 05:02:21;;;;;;;;;;;7.50;99.90;;;;;;5022144;28;19979;-77
2024/01/04 05:05:07;;;;;;;;;;;7.30;99.90;;;;;;4998668;28;19921;-76
2024/01/04 05:07:53;;;;;;;;;;;7.20;99.90;;;;;;4996390;28;19917;-77
2024/01/04 05:10:39;;;;;;;;;;;7.10;99.90;;;;;;5009332;28;19917;-76
2024/01/04 05:13:25;;;;;;;;;;;7.00;99.90;;;;;;5007369;28;19945;-76
2024/01/04 05:16:11;;;;;;;;;;;6.90;99.90;;;;;;5009874;28;20421;-76
2024/01/04 05:18:57;;;;;;;;;;;6.80;99.90;;;;;;5016819;28;19913;-76
2024/01/04 05:21:42;;;;;;;;;;;6.70;99.90;;;;;;5022639;28;19917;-76
2024/01/04 05:24:28;;;;;;;;;;;6.70;99.90;;;;;;5004051;28;19924;-76
2024/01/04 05:27:14;;;;;;;;;;;6.70;99.90;;;;;;5020803;28;19928;-76
2024/01/04 05:30:00;;;;;;;;;;;6.60;99.90;;;;;;5009254;28;19921;-75
2024/01/04 05:32:46;;;;;;;;;;;6.50;99.90;;;;;;5009082;28;19928;-77
2024/01/04 05:35:32;;;;;;;;;;;6.40;99.90;;;;;;4997363;28;20397;-76
2024/01/04 05:38:18;;;;;;;;;;;6.40;99.90;;;;;;5041168;28;19983;-76
2024/01/04 05:41:04;;;;;;;;;;;6.30;99.90;;;;;;5025892;28;20333;-76
2024/01/04 05:43:50;;;;;;;;;;;6.30;99.90;;;;;;5027461;28;19932;-76
2024/01/04 05:46:36;;;;;;;;;;;6.20;99.90;;;;;;5026259;28;20575;-76
2024/01/04 05:49:22;;;;;;;;;;;6.20;99.90;;;;;;5017661;28;19917;-76
2024/01/04 05:52:08;;;;;;;;;;;6.20;99.90;;;;;;5017599;28;19917;-76
2024/01/04 05:54:54;;;;;;;;;;;6.30;99.90;;;;;;5018635;28;19971;-76
2024/01/04 05:57:40;;;;;;;;;;;6.30;99.90;;;;;;5021871;28;19939;-77
2024/01/04 06:00:26;;;;;;;;;;;6.30;99.90;;;;;;5013328;28;20166;-76
2024/01/04 06:03:12;;;;;;;;;;;6.30;99.90;;;;;;5023167;28;19919;-76
2024/01/04 06:05:58;;;;;;;;;;;6.30;99.90;;;;;;5015937;28;19917;-77
2024/01/04 06:08:44;;;;;;;;;;;6.20;99.90;;;;;;4996516;28;19921;-77
2024/01/04 06:11:30;;;;;;;;;;;6.10;99.90;;;;;;5007945;28;19929;-76
2024/01/04 06:14:16;;;;;;;;;;;6.00;99.90;;;;;;5006804;28;19917;-76
2024/01/04 06:17:02;;;;;;;;;;;6.00;99.90;;;;;;5011043;28;20675;-76
2024/01/04 06:19:48;;;;;;;;;;;5.90;99.90;;;;;;5025464;28;20004;-76
2024/01/04 06:22:34;;;;;;;;;;;5.90;99.90;;;;;;5020286;28;19913;-76
2024/01/04 06:25:19;;;;;;;;;;;5.90;99.90;;;;;;5009232;28;19923;-76
2024/01/04 06:28:05;;;;;;;;;;;5.90;99.90;;;;;;5019827;28;19917;-76
2024/01/04 06:30:51;;;;;;;;;;;6.00;99.90;;;;;;5002322;28;19929;-77
2024/01/04 06:33:37;;;;;;;;;;;6.00;99.90;;;;;;5010420;28;20312;-76
2024/01/04 06:36:23;;;;;;;;;;;6.00;99.90;;;;;;5022462;28;19928;-77
2024/01/04 06:39:09;;;;;;;;;;;6.00;99.90;;;;;;4996346;28;19921;-77
2024/01/04 06:41:56;;;;;;;;;;;6.00;99.90;;;;;;5020957;28;19951;-76
2024/01/04 06:44:41;;;;;;;;;;;6.00;99.90;;;;;;4993876;28;19917;-76
2024/01/04 06:47:27;;;;;;;;;;;5.90;99.90;;;;;;5010873;28;19913;-76
2024/01/04 06:50:13;;;;;;;;;;;5.90;99.90;;;;;;5020669;28;19925;-76
2024/01/04 06:52:59;;;;;;;;;;;5.90;99.90;;;;;;5007345;28;19952;-76
2024/01/04 06:55:45;;;;;;;;;;;5.90;99.90;;;;;;5024685;28;20341;-77
2024/01/04 06:58:31;;;;;;;;;;;5.90;99.90;;;;;;5012004;28;19922;-76
2024/01/04 07:01:18;;;;;;;;;;;5.90;99.90;;;;;;5023469;28;20417;-76
2024/01/04 07:04:04;;;;;;;;;;;5.90;99.90;;;;;;4991683;28;19917;-75
2024/01/04 07:06:50;;;;;;;;;;;5.80;99.90;;;;;;5012774;28;19913;-77
2024/01/04 07:09:36;;;;;;;;;;;5.80;99.90;;;;;;5010210;28;20467;-77
2024/01/04 07:12:24;;;;;;;;;;;5.80;99.90;;;;;;5023595;28;19952;-77
2024/01/04 07:15:10;;;;;;;;;;;5.80;99.90;;;;;;4998502;28;19913;-76
2024/01/04 07:17:56;;;;;;;;;;;5.70;99.90;;;;;;5021351;28;19916;-76
2024/01/04 07:20:41;;;;;;;;;;;5.70;99.90;;;;;;5006833;28;19921;-76
2024/01/04 07:23:27;;;;;;;;;;;5.70;99.90;;;;;;5008692;28;19914;-76
2024/01/04 07:26:14;;;;;;;;;;;5.70;99.90;;;;;;5018897;28;19928;-76
2024/01/04 07:29:00;;;;;;;;;;;5.60;99.90;;;;;;5002944;28;19933;-77
2024/01/04 07:31:47;;;;;;;;;;;5.60;99.90;;;;;;5001288;28;19917;-77
2024/01/04 07:34:34;;;;;;;;;;;5.60;99.90;;;;;;5023038;28;19921;-76
2024/01/04 07:37:20;;;;;;;;;;;5.50;99.90;;;;;;5010037;28;19924;-76
2024/01/04 07:40:06;;;;;;;;;;;5.60;99.90;;;;;;5007749;28;20607;-76
2024/01/04 07:42:52;;;;;;;;;;;5.60;99.90;;;;;;5002785;28;19913;-76
2024/01/04 07:45:38;;;;;;;;;;;5.50;99.90;;;;;;5022550;28;19949;-77
2024/01/04 07:48:25;;;;;;;;;;;5.60;99.90;;;;;;5008532;28;20003;-76
2024/01/04 07:51:11;;;;;;;;;;;5.50;99.90;;;;;;5007003;28;19941;-76
2024/01/04 07:53:57;;;;;;;;;;;5.50;99.90;;;;;;5010117;28;19972;-77
2024/01/04 07:56:43;;;;;;;;;;;5.60;99.90;;;;;;5002469;28;20013;-77
2024/01/04 07:59:29;;;;;;;;;;;5.60;99.90;;;;;;4991238;28;19913;-76
2024/01/04 08:02:17;;;;;;;;;;;5.60;99.90;;;;;;5022057;28;19924;-76
2024/01/04 08:05:03;;;;;;;;;;;5.70;99.90;;;;;;5011120;28;20326;-76
2024/01/04 08:07:49;;;;;;;;;;;5.60;99.90;;;;;;5022178;28;19939;-76
2024/01/04 08:10:37;;;;;;;;;;;5.70;99.90;;;;;;5022637;28;20710;-76
2024/01/04 08:13:23;;;;;;;;;;;5.70;99.90;;;;;;5014453;28;19924;-76
2024/01/04 08:16:09;;;;;;;;;;;5.60;99.90;;;;;;5009591;28;19982;-76
2024/01/04 08:18:54;;;;;;;;;;;5.60;99.90;;;;;;5008915;28;19960;-76
2024/01/04 08:21:41;;;;;;;;;;;5.60;99.90;;;;;;5009036;28;19921;-76
2024/01/04 08:24:27;;;;;;;;;;;5.60;99.90;;;;;;5022003;28;19913;-76
2024/01/04 08:27:12;;;;;;;;;;;5.60;99.90;;;;;;5008136;28;19913;-76
2024/01/04 08:29:58;;;;;;;;;;;5.60;99.90;;;;;;5008811;28;19916;-76
2024/01/04 08:32:44;;;;;;;;;;;5.50;99.90;;;;;;5000881;28;19920;-76
2024/01/04 08:35:30;;;;;;;;;;;5.50;99.90;;;;;;5008387;28;19913;-77
2024/01/04 08:38:16;;;;;;;;;;;5.50;99.90;;;;;;4999699;28;19922;-76
2024/01/04 08:41:02;;;;;;;;;;;5.40;99.90;;;;;;4969447;28;19918;-76
2024/01/04 08:43:48;;;;;;;;;;;5.40;99.90;;;;;;4970620;28;19913;-76
2024/01/04 08:46:37;;;;;;;;;;;5.40;99.90;;;;;;5011317;28;19913;-77
2024/01/04 08:49:23;;;;;;;;;;;5.40;99.90;;;;;;4982040;28;19926;-77
2024/01/04 08:52:09;;;;;;;;;;;5.40;99.90;;;;;;5003272;28;20374;-77
2024/01/04 08:54:55;;;;;;;;;;;5.40;99.90;;;;;;5010376;28;19981;-77
2024/01/04 08:57:41;;;;;;;;;;;5.30;99.90;;;;;;4979105;28;20290;-77
2024/01/04 09:00:27;;;;;;;;;;;5.30;99.90;;;;;;4999034;28;19960;-77
2024/01/04 09:03:13;;;;;;;;;;;5.30;99.90;;;;;;4981484;28;19918;-76
2024/01/04 09:05:58;;;;;;;;;;;5.30;99.90;;;;;;4990031;28;19913;-77
2024/01/04 09:08:44;;;;;;;;;;;5.20;99.90;;;;;;5007694;28;19928;-76
2024/01/04 09:11:33;;;;;;;;;;;5.20;99.90;;;;;;5002658;28;20286;-77
2024/01/04 09:14:19;;;;;;;;;;;5.10;99.90;;;;;;4995946;28;20526;-76
2024/01/04 09:17:05;;;;;;;;;;;5.10;99.90;;;;;;5011650;28;19914;-76
2024/01/04 09:19:51;;;;;;;;;;;5.00;99.90;;;;;;4990285;28;19918;-76
2024/01/04 09:22:37;;;;;;;;;;;4.90;99.90;;;;;;5000694;28;19917;-77
2024/01/04 09:25:23;;;;;;;;;;;5.00;99.90;;;;;;4982309;28;19914;-76
2024/01/04 09:28:09;;;;;;;;;;;4.90;99.90;;;;;;4975042;28;19979;-77
2024/01/04 09:30:54;;;;;;;;;;;4.90;99.90;;;;;;4977187;28;20405;-77
2024/01/04 09:33:40;;;;;;;;;;;4.90;99.90;;;;;;4999794;28;19921;-76
2024/01/04 09:36:26;;;;;;;;;;;5.00;99.90;;;;;;4993261;28;19922;-77
2024/01/04 09:39:17;;;;;;;;;;;4.80;99.90;;;;;;5015144;28;19921;-77
2024/01/04 09:42:06;;;;;;;;;;;4.70;99.90;;;;;;5018482;28;20338;-77
2024/01/04 09:44:52;;;;;;;;;;;4.70;99.90;;;;;;5021049;28;19928;-77
2024/01/04 09:47:41;;;;;;;;;;;4.70;99.90;;;;;;5017202;28;19917;-76
2024/01/04 09:50:27;;;;;;;;;;;4.70;99.90;;;;;;5023208;28;19925;-76
2024/01/04 09:53:13;;;;;;;;;;;4.60;99.90;;;;;;5020669;28;19947;-76
2024/01/04 09:55:59;;;;;;;;;;;4.60;99.90;;;;;;5007613;28;19913;-77
2024/01/04 09:58:45;;;;;;;;;;;4.60;99.90;;;;;;5020957;28;19923;-76
2024/01/04 10:01:33;;;;;;;;;;;4.60;99.90;;;;;;5003479;28;19917;-76
2024/01/04 10:04:19;;;;;;;;;;;4.60;99.90;;;;;;5018107;28;19913;-76
2024/01/04 10:07:05;;;;;;;;;;;4.60;99.90;;;;;;5010359;28;19917;-77
2024/01/04 10:09:51;;;;;;;;;;;4.60;99.90;;;;;;5021524;28;19921;-77
2024/01/04 10:12:37;;;;;;;;;;;4.60;99.90;;;;;;5019955;28;19951;-76
2024/01/04 10:15:22;;;;;;;;;;;4.60;99.90;;;;;;5003233;28;19921;-76
2024/01/04 10:18:09;;;;;;;;;;;4.60;99.90;;;;;;5036002;28;19923;-77
2024/01/04 10:20:58;;;;;;;;;;;4.50;99.90;;;;;;5006936;28;20284;-76
2024/01/04 10:23:44;;;;;;;;;;;4.40;99.90;;;;;;5004388;28;20215;-76
2024/01/04 10:26:30;;;;;;;;;;;4.40;99.90;;;;;;5005213;28;19964;-76
2024/01/04 10:29:19;;;;;;;;;;;4.40;99.90;;;;;;5012032;28;19947;-76
2024/01/04 10:32:08;;;;;;;;;;;4.30;99.90;;;;;;5024887;28;19917;-76
2024/01/04 10:35:01;;;;;;;;;;;4.20;99.90;;;;;;5015948;28;19913;-76
2024/01/04 10:37:56;;;;;;;;;;;4.20;99.90;;;;;;5005274;28;20245;-76
2024/01/04 10:40:42;;;;;;;;;;;4.20;99.90;;;;;;5016603;28;19913;-76
2024/01/04 10:43:30;;;;;;;;;;;4.20;99.90;;;;;;5011768;28;19917;-76
2024/01/04 10:46:16;;;;;;;;;;;4.20;99.90;;;;;;5007426;28;19971;-76
2024/01/04 10:49:05;;;;;;;;;;;4.30;99.90;;;;;;5001288;28;20032;-76
2024/01/04 10:51:51;;;;;;;;;;;4.20;99.90;;;;;;5008756;28;19975;-76
2024/01/04 10:54:37;;;;;;;;;;;4.30;99.90;;;;;;5009301;28;19924;-76
2024/01/04 10:57:23;;;;;;;;;;;4.20;99.90;;;;;;5024376;28;20406;-77
2024/01/04 11:00:09;;;;;;;;;;;4.10;99.90;;;;;;5009531;28;20284;-76
2024/01/04 11:02:55;;;;;;;;;;;4.20;99.90;;;;;;5021068;28;19928;-76
2024/01/04 11:05:41;;;;;;;;;;;4.30;99.90;;;;;;5024511;28;19974;-76
2024/01/04 11:08:27;;;;;;;;;;;4.30;99.90;;;;;;5004681;28;19972;-76
2024/01/04 11:11:13;;;;;;;;;;;4.30;99.90;;;;;;5021688;28;19913;-77
2024/01/04 11:13:58;;;;;;;;;;;4.30;99.90;;;;;;5021686;28;20004;-77
2024/01/04 11:16:45;;;;;;;;;;;4.30;99.90;;;;;;5024956;28;19913;-77
2024/01/04 11:19:46;;;;;;;;;;;4.30;99.90;;;;;;5034490;28;19921;-77
2024/01/04 11:22:51;;;;;;;;;;;4.40;99.90;;;;;;5025065;28;20265;-77
2024/01/04 11:25:36;;;;;;;;;;;4.40;99.90;;;;;;5006747;28;19914;-77
2024/01/04 11:28:22;;;;;;;;;;;4.60;99.90;;;;;;5021609;28;19927;-77
2024/01/04 11:31:09;;;;;;;;;;;4.60;99.90;;;;;;5015682;28;19917;-77
2024/01/04 11:33:55;;;;;;;;;;;4.60;99.90;;;;;;5014582;28;19924;-77
2024/01/04 11:36:41;;;;;;;;;;;4.50;99.90;;;;;;5008008;28;19920;-77
2024/01/04 11:39:27;;;;;;;;;;;4.50;99.90;;;;;;5009796;28;20008;-76
2024/01/04 11:42:13;;;;;;;;;;;4.60;99.90;;;;;;5019747;28;19917;-76
2024/01/04 11:45:00;;;;;;;;;;;4.60;99.90;;;;;;5002623;28;19933;-77
2024/01/04 11:47:46;;;;;;;;;;;4.60;99.90;;;;;;5003047;28;19924;-77
2024/01/04 11:50:32;;;;;;;;;;;4.50;99.90;;;;;;4993242;28;19932;-77
2024/01/04 11:53:18;;;;;;;;;;;4.60;99.90;;;;;;5022526;28;20484;-77
2024/01/04 11:56:04;;;;;;;;;;;4.60;99.90;;;;;;5021694;28;20407;-76
2024/01/04 11:58:50;;;;;;;;;;;4.60;99.90;;;;;;5022325;28;19931;-77
2024/01/04 12:01:37;;;;;;;;;;;4.50;99.90;;;;;;4994062;28;20234;-77
2024/01/04 12:04:23;;;;;;;;;;;4.60;99.90;;;;;;5017129;28;20525;-77
2024/01/04 12:07:09;;;;;;;;;;;4.60;99.90;;;;;;5014239;28;19928;-77
2024/01/04 12:09:56;;;;;;;;;;;4.70;99.90;;;;;;5003141;28;19984;-77
2024/01/04 12:12:42;;;;;;;;;;;4.70;99.90;;;;;;5007856;28;20242;-77
2024/01/04 12:15:28;;;;;;;;;;;4.70;99.90;;;;;;5002042;28;19939;-77
2024/01/04 12:18:14;;;;;;;;;;;4.70;99.90;;;;;;5010531;28;19988;-77
2024/01/04 12:21:03;;;;;;;;;;;4.70;99.90;;;;;;5021887;28;19967;-77
2024/01/04 12:23:49;;;;;;;;;;;4.60;99.90;;;;;;5006288;28;19917;-77
2024/01/04 12:26:35;;;;;;;;;;;4.70;99.90;;;;;;5017020;28;19924;-77
2024/01/04 12:29:21;;;;;;;;;;;4.70;99.90;;;;;;5004211;28;19965;-77
2024/01/04 12:32:07;;;;;;;;;;;4.60;99.90;;;;;;5031960;28;20016;-77
2024/01/04 12:34:53;;;;;;;;;;;4.60;99.90;;;;;;5003299;28;19924;-77
2024/01/04 12:37:39;;;;;;;;;;;4.60;99.90;;;;;;5018888;28;20008;-77
2024/01/04 12:40:25;;;;;;;;;;;4.60;99.90;;;;;;5007781;28;19959;-77
2024/01/04 12:43:12;;;;;;;;;;;4.60;99.90;;;;;;5026430;28;20420;-77
2024/01/04 12:46:05;;;;;;;;;;;4.60;99.90;;;;;;5020129;28;19913;-77
2024/01/04 12:48:54;;;;;;;;;;;4.70;99.90;;;;;;5018245;28;19968;-77
2024/01/04 12:51:40;;;;;;;;;;;4.60;99.90;;;;;;5022389;28;19913;-77
2024/01/04 12:54:26;;;;;;;;;;;4.60;99.90;;;;;;5020832;28;20518;-77
2024/01/04 12:57:12;;;;;;;;;;;4.60;99.90;;;;;;5019304;28;20000;-76
2024/01/04 12:59:58;;;;;;;;;;;4.60;99.90;;;;;;5003354;28;19925;-77
2024/01/04 13:02:44;;;;;;;;;;;4.50;99.90;;;;;;5009316;28;19921;-77
2024/01/04 13:05:31;;;;;;;;;;;4.50;99.90;;;;;;5008662;28;19984;-77
2024/01/04 13:08:17;;;;;;;;;;;4.40;99.90;;;;;;4996499;28;19921;-77
2024/01/04 13:11:03;;;;;;;;;;;4.50;99.90;;;;;;5018266;28;20318;-77
2024/01/04 13:13:50;;;;;;;;;;;4.50;99.90;;;;;;5023065;28;19924;-77
2024/01/04 13:16:36;;;;;;;;;;;4.50;99.90;;;;;;5001686;28;19924;-77
2024/01/04 13:19:22;;;;;;;;;;;4.50;99.90;;;;;;5013255;28;20731;-77
2024/01/04 13:22:07;;;;;;;;;;;4.40;99.90;;;;;;5016748;28;19918;-77
2024/01/04 13:24:53;;;;;;;;;;;4.40;99.90;;;;;;4992564;28;20005;-77
2024/01/04 13:27:39;;;;;;;;;;;4.50;99.90;;;;;;5003181;28;19925;-77
2024/01/04 13:30:29;;;;;;;;;;;4.50;99.90;;;;;;5035001;28;20035;-77
2024/01/04 13:33:15;;;;;;;;;;;4.40;99.90;;;;;;5009156;28;19949;-77
2024/01/04 13:36:01;;;;;;;;;;;4.50;99.90;;;;;;5028853;28;19921;-76
2024/01/04 13:38:46;;;;;;;;;;;4.50;99.90;;;;;;5009183;28;19922;-77
2024/01/04 13:41:32;;;;;;;;;;;4.50;99.90;;;;;;5029795;28;20200;-77
2024/01/04 13:44:18;;;;;;;;;;;4.50;99.90;;;;;;5005977;28;19917;-77
2024/01/04 13:47:04;;;;;;;;;;;4.40;99.90;;;;;;5016320;28;19972;-75
2024/01/04 13:49:50;;;;;;;;;;;4.40;99.90;;;;;;5007783;28;19999;-75
2024/01/04 13:52:36;;;;;;;;;;;4.40;99.90;;;;;;5009702;28;20489;-75
2024/01/04 13:55:22;;;;;;;;;;;4.30;99.90;;;;;;5034802;28;19959;-75
2024/01/04 13:58:08;;;;;;;;;;;4.40;99.90;;;;;;5010653;28;19940;-77
2024/01/04 14:00:53;;;;;;;;;;;4.40;99.90;;;;;;5024753;28;19917;-75
2024/01/04 14:03:39;;;;;;;;;;;4.40;99.90;;;;;;5004798;28;19940;-77
2024/01/04 14:06:25;;;;;;;;;;;4.40;99.90;;;;;;5023338;28;20322;-77
2024/01/04 14:09:11;;;;;;;;;;;4.30;99.90;;;;;;5011157;28;19952;-75
2024/01/04 14:11:57;;;;;;;;;;;4.30;99.90;;;;;;5023538;28;19960;-75
2024/01/04 14:14:43;;;;;;;;;;;4.30;99.90;;;;;;5027036;28;19928;-75
2024/01/04 14:17:29;;;;;;;;;;;4.30;99.90;;;;;;5010756;28;19945;-75
2024/01/04 14:20:15;;;;;;;;;;;4.20;99.90;;;;;;5004702;28;19917;-75
2024/01/04 14:23:00;;;;;;;;;;;4.10;99.90;;;;;;5024845;28;19924;-75
2024/01/04 14:25:46;;;;;;;;;;;4.20;99.90;;;;;;5024546;28;19963;-75
2024/01/04 14:28:32;;;;;;;;;;;4.10;99.90;;;;;;5009248;28;20345;-75
2024/01/04 14:31:18;;;;;;;;;;;4.10;99.90;;;;;;5009919;28;20361;-75
2024/01/04 14:34:04;;;;;;;;;;;4.00;99.90;;;;;;5003667;28;19920;-75
2024/01/04 14:36:50;;;;;;;;;;;4.10;99.90;;;;;;5021477;28;19939;-75
2024/01/04 14:39:39;;;;;;;;;;;4.20;99.90;;;;;;5004982;28;19917;-75
2024/01/04 14:42:26;;;;;;;;;;;4.20;99.90;;;;;;5036179;28;19917;-75
2024/01/04 14:45:16;;;;;;;;;;;4.20;99.90;;;;;;5012726;28;19913;-75
2024/01/04 14:48:03;;;;;;;;;;;4.30;99.90;;;;;;4993988;28;19918;-75
2024/01/04 14:50:50;;;;;;;;;;;4.30;99.90;;;;;;4996150;28;19925;-75
2024/01/04 14:53:37;;;;;;;;;;;4.20;99.90;;;;;;5012604;28;19927;-75
2024/01/04 14:56:23;;;;;;;;;;;4.10;99.90;;;;;;5023312;28;20028;-75
2024/01/04 14:59:09;;;;;;;;;;;4.10;99.90;;;;;;5006538;28;19917;-75
2024/01/04 15:01:55;;;;;;;;;;;4.10;99.90;;;;;;5023705;28;19913;-75
2024/01/04 15:04:41;;;;;;;;;;;4.00;99.90;;;;;;5019585;28;19917;-74
2024/01/04 15:07:27;;;;;;;;;;;4.10;99.90;;;;;;5015200;28;19913;-75
2024/01/04 15:10:13;;;;;;;;;;;4.10;99.90;;;;;;5025642;28;20261;-75
2024/01/04 15:12:59;;;;;;;;;;;4.20;99.90;;;;;;5023859;28;19975;-75
2024/01/04 15:15:45;;;;;;;;;;;4.10;99.90;;;;;;5021128;28;19983;-75
2024/01/04 15:18:31;;;;;;;;;;;4.20;99.90;;;;;;5004545;28;19917;-75
2024/01/04 15:21:19;;;;;;;;;;;4.20;99.90;;;;;;5018773;28;19988;-77
2024/01/04 15:24:05;;;;;;;;;;;4.20;99.90;;;;;;5000202;28;19917;-77
2024/01/04 15:26:51;;;;;;;;;;;4.30;99.90;;;;;;5005947;28;19939;-77
2024/01/04 15:29:39;;;;;;;;;;;4.30;99.90;;;;;;5008450;28;19947;-77
2024/01/04 15:32:25;;;;;;;;;;;4.40;99.90;;;;;;5009097;28;19917;-77
2024/01/04 15:35:11;;;;;;;;;;;4.40;99.90;;;;;;5009223;28;20003;-77
2024/01/04 15:37:57;;;;;;;;;;;4.40;99.90;;;;;;5003632;28;20055;-77
2024/01/04 15:40:44;;;;;;;;;;;4.40;99.90;;;;;;5023113;28;19999;-78
2024/01/04 15:43:30;;;;;;;;;;;4.40;99.90;;;;;;5003498;28;19924;-77
2024/01/04 15:46:16;;;;;;;;;;;4.50;99.90;;;;;;5010608;28;19917;-77
2024/01/04 15:49:02;;;;;;;;;;;4.40;99.90;;;;;;5018950;28;20017;-77
2024/01/04 15:51:48;;;;;;;;;;;4.50;99.90;;;;;;4990524;28;19945;-77
2024/01/04 15:54:35;;;;;;;;;;;4.50;99.90;;;;;;5003503;28;19913;-77
2024/01/04 15:57:21;;;;;;;;;;;4.50;99.90;;;;;;4998269;28;19928;-77
2024/01/04 16:00:07;;;;;;;;;;;4.50;99.90;;;;;;5023003;28;19924;-77
2024/01/04 16:02:54;;;;;;;;;;;4.50;99.90;;;;;;5022353;28;19925;-77
2024/01/04 16:05:40;;;;;;;;;;;4.50;99.90;;;;;;5008100;28;19924;-77
2024/01/04 16:08:28;;;;;;;;;;;4.50;99.90;;;;;;5026835;28;20017;-76
2024/01/04 16:11:15;;;;;;;;;;;4.50;99.90;;;;;;5009526;28;19917;-77
2024/01/04 16:14:00;;;;;;;;;;;4.50;99.90;;;;;;5015929;28;19923;-77
2024/01/04 16:16:46;;;;;;;;;;;4.50;99.90;;;;;;5001221;28;20007;-77
2024/01/04 16:19:32;;;;;;;;;;;4.50;99.90;;;;;;5004475;28;19929;-77
2024/01/04 16:22:18;;;;;;;;;;;4.50;99.90;;;;;;5023123;28;19913;-76